Time;durP1;ratioP1;P1;durP2;ratioP2;P2;SDS_P1;SDS_P2;PMS_P1;PMS_P2;Temp;Humidity;BMP_temperature;BMP_pressure;BME280_temperature;BME280_humidity;BME280_pressure;Samples;Min_cycle;Max_cycle;Signal;HPM_P1;HPM_P2
2023/02/21 02:16:07;;;;;;;3.50;2.25;;;;;;;;;;5050088;28;20860;-61
2023/02/21 02:18:45;;;;;;;3.95;2.08;;;;;;;;;;5050070;28;20051;-62
2023/02/21 02:21:29;;;;;;;3.45;1.95;;;;;;;;;;5045761;28;20048;-61
2023/02/21 02:24:07;;;;;;;3.88;2.15;;;;;;;;;;5062936;28;20055;-61
2023/02/21 02:26:32;;;;;;;3.92;2.22;;;;;;;;;;5067691;28;20012;-62
2023/02/21 02:29:13;;;;;;;3.42;2.13;;;;;;;;;;5068527;28;20107;-60
2023/02/21 02:31:45;;;;;;;3.05;1.95;;;;;;;;;;5067944;28;20033;-60
2023/02/21 02:34:29;;;;;;;3.42;2.10;;;;;;;;;;5043157;28;21547;-62
2023/02/21 02:37:09;;;;;;;2.80;1.88;;;;;;;;;;5057602;28;20040;-62
2023/02/21 02:39:35;;;;;;;2.85;1.88;;;;;;;;;;5063143;28;20131;-63
2023/02/21 02:42:23;;;;;;;3.20;1.80;;;;;;;;;;5065962;28;20120;-62
2023/02/21 02:44:49;;;;;;;3.17;2.20;;;;;;;;;;5039700;28;20444;-62
2023/02/21 02:47:17;;;;;;;3.28;1.98;;;;;;;;;;5030927;28;20037;-60
2023/02/21 02:49:42;;;;;;;3.60;1.95;;;;;;;;;;5040311;28;20480;-60
2023/02/21 02:52:07;;;;;;;2.73;1.83;;;;;;;;;;5048675;28;20028;-63
2023/02/21 02:54:33;;;;;;;2.92;1.92;;;;;;;;;;5066436;28;20370;-61
2023/02/21 02:56:58;;;;;;;3.50;2.13;;;;;;;;;;5049714;28;20593;-59
2023/02/21 02:59:27;;;;;;;3.17;1.70;;;;;;;;;;5047130;28;20271;-63
2023/02/21 03:01:56;;;;;;;2.75;1.90;;;;;;;;;;5063299;28;20063;-59
2023/02/21 03:04:33;;;;;;;3.35;2.00;;;;;;;;;;5052753;28;20055;-61
2023/02/21 03:06:58;;;;;;;3.20;1.70;;;;;;;;;;5064809;28;20032;-61
2023/02/21 03:09:53;;;;;;;3.23;2.10;;;;;;;;;;5041557;28;20512;-63
2023/02/21 03:12:37;;;;;;;3.20;1.85;;;;;;;;;;4971206;28;20178;-61
2023/02/21 03:15:03;;;;;;;3.83;2.33;;;;;;;;;;5055346;28;20071;-61
2023/02/21 03:17:28;;;;;;;3.15;1.90;;;;;;;;;;5057174;28;20085;-61
2023/02/21 03:19:54;;;;;;;3.35;1.80;;;;;;;;;;5065294;28;20040;-64
2023/02/21 03:22:20;;;;;;;3.67;2.30;;;;;;;;;;5063564;28;20037;-63
2023/02/21 03:24:46;;;;;;;3.08;2.00;;;;;;;;;;5030967;28;20028;-62
2023/02/21 03:27:12;;;;;;;4.43;2.17;;;;;;;;;;5047504;28;20044;-61
2023/02/21 03:29:37;;;;;;;3.87;2.20;;;;;;;;;;5041175;28;20036;-65
2023/02/21 03:34:48;;;;;;;3.25;2.00;;;;;;;;;;5053076;28;20062;-60
2023/02/21 03:37:39;;;;;;;3.63;2.10;;;;;;;;;;5045921;28;20495;-60
2023/02/21 03:40:09;;;;;;;3.28;1.95;;;;;;;;;;5059909;28;20278;-61
2023/02/21 03:42:34;;;;;;;3.33;2.10;;;;;;;;;;5053509;28;20472;-61
2023/02/21 03:44:59;;;;;;;2.73;1.80;;;;;;;;;;5065736;28;20101;-64
2023/02/21 03:47:24;;;;;;;3.07;1.70;;;;;;;;;;5049100;28;20346;-63
2023/02/21 03:49:50;;;;;;;4.43;1.83;;;;;;;;;;5066573;28;20289;-64
2023/02/21 03:52:15;;;;;;;3.63;2.00;;;;;;;;;;5050185;28;20151;-62
2023/02/21 03:54:40;;;;;;;2.88;1.88;;;;;;;;;;5050574;28;20366;-62
2023/02/21 03:57:05;;;;;;;3.08;1.80;;;;;;;;;;5062115;28;20036;-62
2023/02/21 03:59:31;;;;;;;3.00;1.90;;;;;;;;;;5067445;28;20470;-60
2023/02/21 04:01:56;;;;;;;3.17;1.87;;;;;;;;;;5062509;28;20389;-64
2023/02/21 04:04:21;;;;;;;2.65;1.88;;;;;;;;;;5059562;28;20302;-63
2023/02/21 04:06:46;;;;;;;3.00;1.88;;;;;;;;;;5062506;28;20051;-62
2023/02/21 04:09:12;;;;;;;2.73;1.87;;;;;;;;;;5061404;28;20792;-63
2023/02/21 04:11:37;;;;;;;3.13;1.90;;;;;;;;;;5063317;28;20925;-63
2023/02/21 04:14:03;;;;;;;3.50;2.30;;;;;;;;;;5061348;28;20291;-62
2023/02/21 04:16:28;;;;;;;3.30;2.00;;;;;;;;;;5062397;28;20283;-61
2023/02/21 04:18:53;;;;;;;2.75;1.67;;;;;;;;;;5033586;28;20091;-63
2023/02/21 04:21:19;;;;;;;3.95;2.10;;;;;;;;;;5064346;28;20032;-64
2023/02/21 04:23:44;;;;;;;2.43;1.60;;;;;;;;;;5040035;28;20041;-62
2023/02/21 04:26:09;;;;;;;2.80;1.83;;;;;;;;;;5052329;28;20275;-63
2023/02/21 04:28:34;;;;;;;2.60;1.60;;;;;;;;;;5027392;28;20060;-62
2023/02/21 04:31:00;;;;;;;2.63;1.90;;;;;;;;;;5059725;28;20319;-63
2023/02/21 04:33:25;;;;;;;3.10;1.80;;;;;;;;;;5065882;28;21125;-63
2023/02/21 04:35:50;;;;;;;2.67;1.67;;;;;;;;;;5065432;28;20056;-62
2023/02/21 04:38:16;;;;;;;2.17;1.60;;;;;;;;;;5064358;28;20315;-65
2023/02/21 04:40:41;;;;;;;2.88;1.55;;;;;;;;;;5047379;28;20047;-60
2023/02/21 04:43:06;;;;;;;3.30;1.90;;;;;;;;;;5065206;28;20083;-63
2023/02/21 04:45:31;;;;;;;2.27;1.60;;;;;;;;;;5046336;28;20270;-65
2023/02/21 04:47:57;;;;;;;2.77;1.43;;;;;;;;;;5063411;28;20275;-64
2023/02/21 04:50:22;;;;;;;2.40;1.50;;;;;;;;;;5039593;28;20283;-62
2023/02/21 04:52:47;;;;;;;3.00;1.70;;;;;;;;;;5025169;28;20033;-65
2023/02/21 04:55:13;;;;;;;2.22;1.50;;;;;;;;;;5060646;28;20374;-61
2023/02/21 04:57:38;;;;;;;2.40;1.63;;;;;;;;;;5060800;28;20049;-64
2023/02/21 05:00:06;;;;;;;2.33;1.50;;;;;;;;;;5065636;28;20024;-62
2023/02/21 05:02:31;;;;;;;3.03;2.03;;;;;;;;;;5042786;28;20276;-62
2023/02/21 05:04:56;;;;;;;3.17;1.80;;;;;;;;;;5061759;28;20033;-62
2023/02/21 05:07:21;;;;;;;2.75;1.65;;;;;;;;;;5062440;28;20303;-63
2023/02/21 05:09:47;;;;;;;2.85;1.63;;;;;;;;;;5045425;28;20487;-64
2023/02/21 05:12:12;;;;;;;2.50;1.60;;;;;;;;;;5086955;23;20364;-65
2023/02/21 05:14:38;;;;;;;2.95;1.88;;;;;;;;;;5084575;28;20067;-64
2023/02/21 05:17:03;;;;;;;6.68;1.92;;;;;;;;;;5083756;28;20576;-65
2023/02/21 05:19:28;;;;;;;2.05;1.42;;;;;;;;;;5082347;28;20067;-65
2023/02/21 05:21:57;;;;;;;2.50;1.40;;;;;;;;;;5065301;28;20040;-62
2023/02/21 05:24:23;;;;;;;2.00;1.40;;;;;;;;;;5080194;28;20299;-66
2023/02/21 05:26:48;;;;;;;2.75;1.77;;;;;;;;;;5075309;28;20547;-63
2023/02/21 05:29:14;;;;;;;3.30;1.80;;;;;;;;;;5066556;28;20093;-63
2023/02/21 05:31:39;;;;;;;1.92;1.35;;;;;;;;;;5075021;28;20274;-64
2023/02/21 05:34:04;;;;;;;2.47;1.50;;;;;;;;;;5066337;28;20062;-67
2023/02/21 05:36:30;;;;;;;3.17;1.70;;;;;;;;;;5063251;28;20366;-65
2023/02/21 05:38:55;;;;;;;2.83;1.67;;;;;;;;;;5047615;28;20470;-66
2023/02/21 05:41:20;;;;;;;2.63;1.85;;;;;;;;;;5086181;28;20127;-64
2023/02/21 05:43:46;;;;;;;2.47;1.50;;;;;;;;;;5088937;28;20036;-65
2023/02/21 05:46:25;;;;;;;2.67;1.40;;;;;;;;;;5080856;28;20281;-64
2023/02/21 05:48:51;;;;;;;3.65;1.50;;;;;;;;;;5087168;28;20483;-64
2023/02/21 05:51:16;;;;;;;2.58;1.50;;;;;;;;;;5058476;28;20383;-64
2023/02/21 05:53:41;;;;;;;2.67;1.40;;;;;;;;;;5082475;28;20055;-63
2023/02/21 05:56:07;;;;;;;2.73;1.40;;;;;;;;;;5085591;28;20811;-63
2023/02/21 05:58:32;;;;;;;2.30;1.40;;;;;;;;;;5083397;28;20464;-63
2023/02/21 06:00:57;;;;;;;2.43;1.30;;;;;;;;;;5082833;28;20036;-64
2023/02/21 06:03:23;;;;;;;2.53;1.50;;;;;;;;;;5064217;28;20036;-65
2023/02/21 06:05:48;;;;;;;2.73;1.50;;;;;;;;;;5041170;28;20296;-65
2023/02/21 06:08:13;;;;;;;2.37;1.40;;;;;;;;;;5085742;28;20286;-66
2023/02/21 06:10:38;;;;;;;2.20;1.50;;;;;;;;;;5066477;28;20296;-67
2023/02/21 06:13:03;;;;;;;2.40;1.40;;;;;;;;;;5083115;28;20079;-67
2023/02/21 06:15:29;;;;;;;2.77;1.50;;;;;;;;;;5085336;28;20270;-67
2023/02/21 06:17:54;;;;;;;2.53;1.60;;;;;;;;;;5083462;28;20062;-66
2023/02/21 06:20:19;;;;;;;3.13;1.47;;;;;;;;;;5086050;28;20294;-66
2023/02/21 06:22:46;;;;;;;1.90;1.33;;;;;;;;;;5069395;28;20277;-66
2023/02/21 06:25:11;;;;;;;3.45;1.30;;;;;;;;;;5068896;28;20290;-65
2023/02/21 06:27:36;;;;;;;2.20;1.40;;;;;;;;;;5069495;28;20024;-66
2023/02/21 06:30:02;;;;;;;4.83;1.43;;;;;;;;;;5083217;28;20033;-65
2023/02/21 06:32:27;;;;;;;2.35;1.30;;;;;;;;;;5050891;28;20535;-64
2023/02/21 06:34:53;;;;;;;2.20;1.20;;;;;;;;;;5082779;28;20478;-65
2023/02/21 06:37:18;;;;;;;2.67;1.30;;;;;;;;;;5081041;28;20106;-68
2023/02/21 06:39:43;;;;;;;2.88;1.17;;;;;;;;;;5085375;28;20051;-68
2023/02/21 06:42:11;;;;;;;4.33;1.47;;;;;;;;;;5083988;28;20226;-65
2023/02/21 06:44:36;;;;;;;2.30;1.23;;;;;;;;;;5074651;28;20377;-67
2023/02/21 06:47:02;;;;;;;6.10;1.40;;;;;;;;;;5085748;28;20133;-66
2023/02/21 06:49:27;;;;;;;3.93;1.57;;;;;;;;;;5048592;28;20183;-63
2023/02/21 06:51:52;;;;;;;2.93;1.60;;;;;;;;;;5087690;28;20067;-66
2023/02/21 06:54:17;;;;;;;3.07;1.70;;;;;;;;;;5085546;28;20235;-67
2023/02/21 06:56:43;;;;;;;2.90;1.43;;;;;;;;;;5082545;28;20305;-65
2023/02/21 06:59:08;;;;;;;3.00;1.10;;;;;;;;;;5084050;28;20085;-66
2023/02/21 07:01:34;;;;;;;2.80;1.50;;;;;;;;;;5085891;28;20097;-66
2023/02/21 07:03:59;;;;;;;2.35;1.63;;;;;;;;;;5065834;28;20304;-65
2023/02/21 07:06:24;;;;;;;3.77;1.70;;;;;;;;;;5079832;28;20036;-65
2023/02/21 07:08:49;;;;;;;3.08;1.60;;;;;;;;;;5068377;28;20294;-65
2023/02/21 07:11:15;;;;;;;2.50;1.40;;;;;;;;;;5083753;28;20036;-65
2023/02/21 07:13:40;;;;;;;3.03;1.42;;;;;;;;;;5078520;28;20063;-66
2023/02/21 07:16:05;;;;;;;2.85;1.55;;;;;;;;;;5086097;28;20515;-66
2023/02/21 07:18:31;;;;;;;2.83;1.45;;;;;;;;;;5085510;28;20047;-66
2023/02/21 07:20:56;;;;;;;3.08;1.45;;;;;;;;;;5087605;28;20043;-67
2023/02/21 07:23:21;;;;;;;2.93;1.60;;;;;;;;;;5089534;28;20024;-66
2023/02/21 07:25:46;;;;;;;2.73;1.37;;;;;;;;;;5085727;28;20332;-67
2023/02/21 07:28:12;;;;;;;4.13;1.50;;;;;;;;;;5082272;28;20623;-67
2023/02/21 07:30:37;;;;;;;2.07;1.40;;;;;;;;;;5082437;28;20427;-67
2023/02/21 07:33:02;;;;;;;3.05;1.45;;;;;;;;;;5086572;28;20302;-67
2023/02/21 07:35:27;;;;;;;2.17;1.33;;;;;;;;;;5053523;28;20487;-68
2023/02/21 07:37:53;;;;;;;3.70;1.60;;;;;;;;;;5085985;28;20051;-66
2023/02/21 07:40:18;;;;;;;2.43;1.37;;;;;;;;;;5086842;28;20373;-67
2023/02/21 07:42:44;;;;;;;2.53;1.40;;;;;;;;;;5084885;28;20703;-68
2023/02/21 07:45:10;;;;;;;2.30;1.50;;;;;;;;;;5078429;28;20458;-67
2023/02/21 07:47:35;;;;;;;3.28;1.55;;;;;;;;;;5086743;28;20278;-67
2023/02/21 07:50:00;;;;;;;2.60;1.53;;;;;;;;;;5060628;28;20553;-67
2023/02/21 07:52:25;;;;;;;2.38;1.40;;;;;;;;;;5085247;28;20278;-68
2023/02/21 07:54:50;;;;;;;2.30;1.47;;;;;;;;;;5081878;28;20140;-68
2023/02/21 07:57:16;;;;;;;3.00;1.47;;;;;;;;;;5057914;28;20522;-68
2023/02/21 07:59:41;;;;;;;1.85;1.30;;;;;;;;;;5060432;28;20932;-67
2023/02/21 08:02:06;;;;;;;2.40;1.40;;;;;;;;;;5086000;28;20102;-67
2023/02/21 08:04:32;;;;;;;2.80;1.30;;;;;;;;;;5053517;28;20384;-67
2023/02/21 08:06:58;;;;;;;2.80;1.47;;;;;;;;;;5085039;28;20348;-69
2023/02/21 08:09:23;;;;;;;3.08;1.52;;;;;;;;;;5069828;28;20078;-67
2023/02/21 08:11:48;;;;;;;3.17;1.77;;;;;;;;;;5085446;28;20132;-67
2023/02/21 08:14:13;;;;;;;2.93;1.70;;;;;;;;;;5085623;28;20293;-67
2023/02/21 08:16:38;;;;;;;2.22;1.30;;;;;;;;;;5083963;28;20032;-68
2023/02/21 08:19:04;;;;;;;3.30;1.80;;;;;;;;;;5082834;28;20417;-67
2023/02/21 08:21:29;;;;;;;2.95;1.52;;;;;;;;;;5082224;28;20779;-64
2023/02/21 08:23:54;;;;;;;4.03;1.70;;;;;;;;;;5081110;28;20023;-67
2023/02/21 08:26:20;;;;;;;3.03;1.60;;;;;;;;;;5064358;28;20623;-66
2023/02/21 08:28:45;;;;;;;2.45;1.48;;;;;;;;;;5049148;28;20051;-66
2023/02/21 08:31:10;;;;;;;3.30;1.50;;;;;;;;;;5085639;28;20016;-67
2023/02/21 08:33:36;;;;;;;3.17;1.48;;;;;;;;;;5059886;28;20271;-67
2023/02/21 08:36:01;;;;;;;3.13;1.50;;;;;;;;;;5085399;28;20555;-66
2023/02/21 08:38:26;;;;;;;2.95;1.55;;;;;;;;;;5059517;28;20289;-66
2023/02/21 08:40:51;;;;;;;2.30;1.60;;;;;;;;;;5084599;28;20144;-66
2023/02/21 08:43:17;;;;;;;3.40;1.83;;;;;;;;;;5055946;28;21204;-66
2023/02/21 08:45:42;;;;;;;2.00;1.30;;;;;;;;;;5067121;28;20044;-66
2023/02/21 08:48:07;;;;;;;2.17;1.50;;;;;;;;;;5052464;28;20023;-68
2023/02/21 08:50:32;;;;;;;2.55;1.67;;;;;;;;;;5083587;28;20032;-66
2023/02/21 08:52:58;;;;;;;3.28;1.80;;;;;;;;;;5052119;28;20046;-67
2023/02/21 08:55:23;;;;;;;3.30;1.77;;;;;;;;;;5080956;28;20496;-66
2023/02/21 08:57:49;;;;;;;3.03;1.70;;;;;;;;;;5050504;28;20290;-66
2023/02/21 09:00:14;;;;;;;3.35;1.48;;;;;;;;;;5037226;28;20358;-65
2023/02/21 09:02:40;;;;;;;3.60;1.77;;;;;;;;;;5083215;28;20016;-66
2023/02/21 09:05:08;;;;;;;2.80;1.53;;;;;;;;;;5073963;28;20012;-65
2023/02/21 09:07:33;;;;;;;2.75;1.50;;;;;;;;;;5063772;28;20312;-66
2023/02/21 09:09:59;;;;;;;3.38;1.50;;;;;;;;;;5077972;28;20082;-65
2023/02/21 09:12:25;;;;;;;3.15;1.75;;;;;;;;;;5057487;28;20496;-66
2023/02/21 09:14:50;;;;;;;3.13;1.63;;;;;;;;;;5073384;28;20031;-66
2023/02/21 09:17:15;;;;;;;3.33;1.80;;;;;;;;;;5050250;28;20337;-66
2023/02/21 09:19:40;;;;;;;2.97;1.63;;;;;;;;;;5083952;28;20255;-66
2023/02/21 09:22:06;;;;;;;2.88;1.70;;;;;;;;;;5075100;28;20016;-65
2023/02/21 09:24:31;;;;;;;2.85;1.83;;;;;;;;;;5078072;28;20393;-65
2023/02/21 09:27:03;;;;;;;2.80;1.50;;;;;;;;;;5078832;28;20508;-65
2023/02/21 09:29:29;;;;;;;2.55;1.65;;;;;;;;;;5066439;28;20073;-66
2023/02/21 09:31:54;;;;;;;3.15;1.77;;;;;;;;;;5086580;28;20588;-65
2023/02/21 09:34:21;;;;;;;3.03;1.90;;;;;;;;;;5066540;28;20044;-65
2023/02/21 09:36:47;;;;;;;4.15;1.88;;;;;;;;;;5068175;28;20028;-65
2023/02/21 09:39:12;;;;;;;3.08;1.67;;;;;;;;;;5078582;28;20051;-65
2023/02/21 09:41:38;;;;;;;3.70;1.60;;;;;;;;;;5089350;28;20054;-65
2023/02/21 09:44:03;;;;;;;2.72;1.80;;;;;;;;;;5071176;28;20365;-65
2023/02/21 09:46:36;;;;;;;3.47;1.77;;;;;;;;;;5070644;28;20035;-65
2023/02/21 09:49:02;;;;;;;2.97;1.67;;;;;;;;;;5081813;28;20036;-66
2023/02/21 09:51:27;;;;;;;2.88;1.75;;;;;;;;;;5089109;28;20092;-65
2023/02/21 09:53:53;;;;;;;3.43;1.53;;;;;;;;;;5069197;28;20496;-64
2023/02/21 09:56:33;;;;;;;3.15;1.70;;;;;;;;;;5054258;28;20474;-64
2023/02/21 09:58:58;;;;;;;2.17;1.35;;;;;;;;;;5078824;28;20135;-64
2023/02/21 10:01:46;;;;;;;2.15;1.60;;;;;;;;;;5087036;28;20476;-65
2023/02/21 10:04:24;;;;;;;3.20;1.70;;;;;;;;;;5050671;28;20117;-66
2023/02/21 10:07:05;;;;;;;4.00;1.85;;;;;;;;;;5045855;28;20448;-63
2023/02/21 10:09:48;;;;;;;3.47;1.70;;;;;;;;;;5084016;28;20037;-65
2023/02/21 10:12:23;;;;;;;2.72;1.63;;;;;;;;;;5053400;28;20085;-64
2023/02/21 10:14:51;;;;;;;3.10;1.77;;;;;;;;;;5056042;28;20063;-64
2023/02/21 10:17:18;;;;;;;2.47;1.80;;;;;;;;;;5051107;28;20052;-66
2023/02/21 10:19:47;;;;;;;4.07;1.88;;;;;;;;;;5039324;28;20569;-66
2023/02/21 10:22:14;;;;;;;4.75;2.30;;;;;;;;;;5043160;28;20037;-64
2023/02/21 10:24:39;;;;;;;3.03;1.70;;;;;;;;;;5044523;28;20440;-64
2023/02/21 10:27:05;;;;;;;2.87;1.87;;;;;;;;;;5052609;28;20029;-65
2023/02/21 10:29:37;;;;;;;3.25;1.80;;;;;;;;;;5066514;28;20428;-66
2023/02/21 10:32:03;;;;;;;3.22;1.80;;;;;;;;;;5064986;28;20051;-64
2023/02/21 10:34:28;;;;;;;3.30;1.80;;;;;;;;;;5058984;28;20366;-66
2023/02/21 10:36:54;;;;;;;3.55;1.70;;;;;;;;;;5052895;28;20082;-66
2023/02/21 10:39:20;;;;;;;4.38;2.05;;;;;;;;;;5063516;28;20017;-65
2023/02/21 10:41:45;;;;;;;3.33;1.70;;;;;;;;;;5035432;28;20029;-66
2023/02/21 10:44:13;;;;;;;2.33;1.50;;;;;;;;;;5049945;28;20384;-65
2023/02/21 10:46:44;;;;;;;3.92;1.80;;;;;;;;;;5064497;28;20050;-66
2023/02/21 10:49:27;;;;;;;2.53;1.50;;;;;;;;;;5049575;28;20035;-66
2023/02/21 10:52:11;;;;;;;4.18;2.03;;;;;;;;;;5067116;28;20044;-64
2023/02/21 10:54:37;;;;;;;2.35;1.60;;;;;;;;;;5065684;28;20193;-65
2023/02/21 10:57:03;;;;;;;3.00;1.83;;;;;;;;;;5051789;28;20495;-64
2023/02/21 10:59:29;;;;;;;2.22;1.58;;;;;;;;;;5056365;28;20117;-64
2023/02/21 11:01:55;;;;;;;3.38;1.80;;;;;;;;;;5055127;28;20106;-64
2023/02/21 11:04:20;;;;;;;2.65;1.63;;;;;;;;;;5048775;28;20048;-67
2023/02/21 11:06:46;;;;;;;3.33;1.88;;;;;;;;;;5064755;28;20386;-66
2023/02/21 11:09:43;;;;;;;3.42;1.80;;;;;;;;;;5064570;28;20036;-64
2023/02/21 11:12:14;;;;;;;3.63;1.70;;;;;;;;;;5033204;28;20495;-64
2023/02/21 11:14:40;;;;;;;4.82;1.88;;;;;;;;;;5086876;28;20450;-66
2023/02/21 11:17:13;;;;;;;2.45;1.75;;;;;;;;;;5056475;28;20028;-66
2023/02/21 11:19:47;;;;;;;3.10;1.98;;;;;;;;;;5043792;28;20032;-66
2023/02/21 11:22:13;;;;;;;4.55;2.00;;;;;;;;;;5067857;28;20120;-65
2023/02/21 11:24:45;;;;;;;2.88;1.63;;;;;;;;;;5050906;28;20115;-65
2023/02/21 11:27:11;;;;;;;2.85;1.73;;;;;;;;;;5084728;28;20032;-65
2023/02/21 11:29:36;;;;;;;3.25;1.73;;;;;;;;;;5050191;28;20396;-65
2023/02/21 11:32:08;;;;;;;2.70;1.53;;;;;;;;;;5055792;28;20091;-65
2023/02/21 11:34:34;;;;;;;2.83;1.80;;;;;;;;;;5066973;28;20061;-65
2023/02/21 11:37:02;;;;;;;2.10;1.53;;;;;;;;;;5060518;28;20037;-66
2023/02/21 11:39:31;;;;;;;3.20;1.83;;;;;;;;;;5085157;28;20640;-66
2023/02/21 11:41:56;;;;;;;3.47;1.90;;;;;;;;;;5084501;28;20504;-67
2023/02/21 11:44:22;;;;;;;3.05;1.60;;;;;;;;;;5068251;28;20116;-66
2023/02/21 11:46:47;;;;;;;2.95;1.52;;;;;;;;;;5085813;28;20123;-65
2023/02/21 11:49:13;;;;;;;2.17;1.27;;;;;;;;;;5086286;28;20094;-65
2023/02/21 11:51:40;;;;;;;3.10;1.57;;;;;;;;;;5084827;28;20079;-65
2023/02/21 11:54:06;;;;;;;2.47;1.70;;;;;;;;;;5058188;28;20127;-66
2023/02/21 11:56:31;;;;;;;3.00;1.70;;;;;;;;;;5083379;28;20119;-66
2023/02/21 11:59:00;;;;;;;2.53;1.60;;;;;;;;;;5084946;28;20070;-67
2023/02/21 12:01:34;;;;;;;2.75;1.60;;;;;;;;;;5038080;28;20035;-69
2023/02/21 12:04:02;;;;;;;3.22;1.65;;;;;;;;;;5068104;28;20047;-65
2023/02/21 12:06:34;;;;;;;2.97;1.77;;;;;;;;;;5082709;28;20373;-63
2023/02/21 12:09:24;;;;;;;3.50;1.52;;;;;;;;;;5059654;28;20074;-64
2023/02/21 12:11:55;;;;;;;2.80;1.70;;;;;;;;;;5065835;28;20052;-64
2023/02/21 12:14:28;;;;;;;2.95;1.75;;;;;;;;;;5067018;28;20031;-65
2023/02/21 12:17:11;;;;;;;3.20;1.65;;;;;;;;;;5051205;28;20473;-64
2023/02/21 12:19:39;;;;;;;4.20;1.70;;;;;;;;;;5052260;28;20046;-64
2023/02/21 12:22:31;;;;;;;3.92;1.83;;;;;;;;;;5083119;28;20067;-66
2023/02/21 12:25:15;;;;;;;2.50;1.50;;;;;;;;;;5040899;28;20044;-66
2023/02/21 12:27:56;;;;;;;2.65;1.60;;;;;;;;;;5085694;28;20028;-65
2023/02/21 12:30:40;;;;;;;2.83;1.73;;;;;;;;;;5065565;28;20392;-66
2023/02/21 12:33:15;;;;;;;3.22;1.85;;;;;;;;;;5072303;28;20115;-66
2023/02/21 12:35:43;;;;;;;2.40;1.40;;;;;;;;;;5079342;28;20150;-65
2023/02/21 12:38:41;;;;;;;3.05;1.75;;;;;;;;;;5061631;28;20102;-65
2023/02/21 12:41:25;;;;;;;2.67;1.70;;;;;;;;;;5027665;28;20037;-66
2023/02/21 12:43:55;;;;;;;3.30;1.73;;;;;;;;;;5070383;28;20036;-66
2023/02/21 12:46:24;;;;;;;3.67;1.70;;;;;;;;;;5057591;28;20112;-65
2023/02/21 12:49:10;;;;;;;2.30;1.50;;;;;;;;;;5063811;28;20028;-65
2023/02/21 12:51:50;;;;;;;2.90;1.45;;;;;;;;;;5059416;28;20035;-65
2023/02/21 12:54:17;;;;;;;2.33;1.60;;;;;;;;;;5039970;28;20447;-66
2023/02/21 12:56:48;;;;;;;3.20;2.05;;;;;;;;;;5062454;28;20028;-65
2023/02/21 12:59:19;;;;;;;3.53;1.75;;;;;;;;;;5085786;28;20109;-65
2023/02/21 13:02:04;;;;;;;3.28;1.50;;;;;;;;;;5056716;28;20039;-65
2023/02/21 13:04:35;;;;;;;3.90;1.70;;;;;;;;;;5066768;28;20040;-67
2023/02/21 13:07:06;;;;;;;2.83;1.50;;;;;;;;;;5065448;28;20097;-65
2023/02/21 13:09:42;;;;;;;2.08;1.30;;;;;;;;;;5067672;28;20522;-66
2023/02/21 13:12:12;;;;;;;2.42;1.52;;;;;;;;;;5066903;28;20364;-65
2023/02/21 13:14:47;;;;;;;3.08;1.45;;;;;;;;;;5067721;28;20491;-65
2023/02/21 13:17:13;;;;;;;2.72;1.50;;;;;;;;;;5060829;28;20098;-65
2023/02/21 13:19:50;;;;;;;3.55;1.70;;;;;;;;;;5067126;28;20024;-64
2023/02/21 13:25:21;;;;;;;2.92;1.52;;;;;;;;;;5079851;28;20526;-64
2023/02/21 13:27:56;;;;;;;2.17;1.52;;;;;;;;;;5086076;28;20033;-65
2023/02/21 13:30:37;;;;;;;2.00;1.20;;;;;;;;;;5079998;28;20060;-64
2023/02/21 13:33:02;;;;;;;2.03;1.27;;;;;;;;;;5071431;28;20036;-65
2023/02/21 13:35:37;;;;;;;2.43;1.47;;;;;;;;;;5077619;28;20488;-65
2023/02/21 13:38:06;;;;;;;2.45;1.50;;;;;;;;;;5048463;28;20311;-65
2023/02/21 13:40:35;;;;;;;2.10;1.38;;;;;;;;;;5044319;28;20032;-64
2023/02/21 13:43:02;;;;;;;3.08;1.60;;;;;;;;;;5045476;28;20166;-64
2023/02/21 13:45:27;;;;;;;2.05;1.33;;;;;;;;;;5049018;28;20024;-65
2023/02/21 13:47:52;;;;;;;2.50;1.30;;;;;;;;;;5048894;28;20016;-65
2023/02/21 13:50:38;;;;;;;1.97;1.37;;;;;;;;;;5061717;28;20274;-66
2023/02/21 13:53:18;;;;;;;2.15;1.50;;;;;;;;;;5075010;28;20064;-65
2023/02/21 13:56:10;;;;;;;2.38;1.23;;;;;;;;;;5080650;28;20058;-63
2023/02/21 13:58:35;;;;;;;1.83;1.33;;;;;;;;;;5082563;28;20115;-65
2023/02/21 14:01:21;;;;;;;2.30;1.13;;;;;;;;;;5083132;28;20115;-65
2023/02/21 14:03:46;;;;;;;2.13;1.38;;;;;;;;;;5079913;28;20972;-65
2023/02/21 14:06:11;;;;;;;3.37;1.17;;;;;;;;;;5077502;28;20039;-66
2023/02/21 14:08:44;;;;;;;1.57;1.10;;;;;;;;;;5075462;28;20817;-65
2023/02/21 14:11:18;;;;;;;1.90;1.33;;;;;;;;;;5076662;28;20814;-65
2023/02/21 14:13:50;;;;;;;2.10;1.38;;;;;;;;;;5070133;28;20076;-65
2023/02/21 14:16:24;;;;;;;3.25;1.52;;;;;;;;;;5053155;28;20036;-65
2023/02/21 14:18:51;;;;;;;2.38;1.30;;;;;;;;;;5067457;28;20142;-65
2023/02/21 14:21:35;;;;;;;1.83;1.10;;;;;;;;;;5062587;28;20032;-66
2023/02/21 14:24:06;;;;;;;3.00;1.40;;;;;;;;;;5068407;28;20040;-66
2023/02/21 14:26:49;;;;;;;1.77;1.17;;;;;;;;;;5062802;28;20028;-64
2023/02/21 14:29:32;;;;;;;2.28;1.27;;;;;;;;;;5086148;28;20137;-65
2023/02/21 14:32:01;;;;;;;2.35;1.50;;;;;;;;;;5057535;28;20151;-65
2023/02/21 14:34:26;;;;;;;1.48;1.15;;;;;;;;;;5079842;28;20032;-64
2023/02/21 14:36:51;;;;;;;3.05;1.30;;;;;;;;;;5081677;28;20407;-64
2023/02/21 14:39:17;;;;;;;2.00;1.25;;;;;;;;;;5065420;28;20067;-64
2023/02/21 14:42:01;;;;;;;1.67;1.20;;;;;;;;;;5073198;28;20040;-64
2023/02/21 14:44:26;;;;;;;2.15;1.30;;;;;;;;;;5081670;28;20293;-64
2023/02/21 14:47:07;;;;;;;1.53;1.10;;;;;;;;;;5081945;28;20040;-66
2023/02/21 14:49:51;;;;;;;1.73;1.20;;;;;;;;;;5071564;28;20051;-65
2023/02/21 14:52:16;;;;;;;1.80;1.10;;;;;;;;;;5081576;28;20396;-64
2023/02/21 14:54:47;;;;;;;1.70;1.10;;;;;;;;;;5076599;28;20050;-65
2023/02/21 14:57:12;;;;;;;2.17;1.30;;;;;;;;;;5082101;28;20121;-64
2023/02/21 14:59:44;;;;;;;2.37;1.40;;;;;;;;;;5072225;28;20559;-64
2023/02/21 15:02:22;;;;;;;1.98;1.30;;;;;;;;;;5060924;28;20142;-65
2023/02/21 15:05:08;;;;;;;1.40;1.00;;;;;;;;;;5078105;28;20119;-65
2023/02/21 15:07:36;;;;;;;2.40;1.30;;;;;;;;;;5071790;28;20042;-67
2023/02/21 15:10:12;;;;;;;2.05;1.10;;;;;;;;;;5063602;28;20024;-66
2023/02/21 15:12:39;;;;;;;1.92;1.17;;;;;;;;;;5082576;28;20131;-67
2023/02/21 15:15:04;;;;;;;2.15;1.10;;;;;;;;;;5049978;28;20031;-65
2023/02/21 15:17:29;;;;;;;1.60;1.20;;;;;;;;;;5085761;28;20048;-64
2023/02/21 15:20:04;;;;;;;2.13;1.15;;;;;;;;;;5084057;28;20044;-64
2023/02/21 15:22:29;;;;;;;1.85;1.10;;;;;;;;;;5064587;28;20051;-66
2023/02/21 15:24:58;;;;;;;2.27;1.53;;;;;;;;;;5078665;28;20032;-65
2023/02/21 15:27:23;;;;;;;2.08;1.20;;;;;;;;;;5041414;28;20049;-66
2023/02/21 15:30:02;;;;;;;1.73;1.20;;;;;;;;;;5082963;28;20042;-66
2023/02/21 15:32:27;;;;;;;1.42;0.90;;;;;;;;;;5078204;28;20439;-64
2023/02/21 15:34:52;;;;;;;2.20;1.30;;;;;;;;;;5081509;28;20134;-66
2023/02/21 15:37:19;;;;;;;2.40;1.20;;;;;;;;;;5063438;28;20144;-64
2023/02/21 15:39:49;;;;;;;1.67;1.08;;;;;;;;;;5073852;28;20523;-67
2023/02/21 15:42:14;;;;;;;1.98;1.30;;;;;;;;;;5062845;28;20043;-67
2023/02/21 15:44:41;;;;;;;1.90;1.20;;;;;;;;;;5080534;28;20032;-66
2023/02/21 15:47:07;;;;;;;1.60;1.00;;;;;;;;;;5074238;28;20067;-66
2023/02/21 15:49:34;;;;;;;1.67;1.17;;;;;;;;;;5068553;28;20028;-65
2023/02/21 15:52:02;;;;;;;1.80;1.30;;;;;;;;;;5061205;28;20055;-66
2023/02/21 15:54:30;;;;;;;1.95;1.23;;;;;;;;;;5068652;28;20044;-65
2023/02/21 15:57:15;;;;;;;2.85;1.38;;;;;;;;;;5054611;28;20097;-68
2023/02/21 15:59:40;;;;;;;1.73;1.10;;;;;;;;;;5041858;28;20051;-64
2023/02/21 16:02:14;;;;;;;1.73;1.00;;;;;;;;;;5083310;28;20080;-66
2023/02/21 16:04:40;;;;;;;1.25;0.85;;;;;;;;;;5052121;28;20133;-66
2023/02/21 16:07:05;;;;;;;1.73;1.05;;;;;;;;;;5077396;28;20040;-67
2023/02/21 16:09:33;;;;;;;2.65;1.33;;;;;;;;;;5046358;28;20041;-67
2023/02/21 16:12:02;;;;;;;1.83;1.15;;;;;;;;;;5046048;28;20437;-65
2023/02/21 16:14:36;;;;;;;7.60;1.45;;;;;;;;;;5085199;28;20054;-67
2023/02/21 16:17:11;;;;;;;3.85;1.23;;;;;;;;;;5063653;28;20475;-69
2023/02/21 16:19:36;;;;;;;5.15;1.50;;;;;;;;;;5067257;28;20114;-67
2023/02/21 16:22:11;;;;;;;7.47;1.90;;;;;;;;;;5081349;28;20100;-67
2023/02/21 16:24:38;;;;;;;5.40;2.20;;;;;;;;;;5068901;23;20501;-71
2023/02/21 16:27:04;;;;;;;5.47;2.63;;;;;;;;;;5065355;28;20049;-73
2023/02/21 16:29:30;;;;;;;7.35;3.08;;;;;;;;;;5047945;28;20088;-76
2023/02/21 16:31:55;;;;;;;8.05;3.00;;;;;;;;;;5051271;28;20067;-77
2023/02/21 16:34:20;;;;;;;7.37;3.43;;;;;;;;;;5044636;28;20029;-82
2023/02/21 16:36:46;;;;;;;8.43;3.42;;;;;;;;;;5044952;28;20135;-70
2023/02/21 16:39:11;;;;;;;7.15;3.33;;;;;;;;;;5061342;28;20040;-72
2023/02/21 16:41:36;;;;;;;9.87;3.53;;;;;;;;;;5041488;28;20036;-71
2023/02/21 16:44:01;;;;;;;8.10;3.27;;;;;;;;;;5061957;28;20318;-71
2023/02/21 16:46:27;;;;;;;7.77;3.20;;;;;;;;;;5035560;28;21085;-71
2023/02/21 16:48:53;;;;;;;6.82;3.38;;;;;;;;;;5045931;28;20365;-71
2023/02/21 16:51:19;;;;;;;7.60;3.20;;;;;;;;;;5046720;28;20047;-70
2023/02/21 16:53:45;;;;;;;7.38;3.60;;;;;;;;;;5045069;28;20127;-71
2023/02/21 16:56:10;;;;;;;7.80;3.95;;;;;;;;;;5046494;28;20075;-71
2023/02/21 16:58:36;;;;;;;7.85;3.83;;;;;;;;;;5044719;28;20072;-71
2023/02/21 17:01:03;;;;;;;8.93;3.63;;;;;;;;;;5060994;28;20446;-71
2023/02/21 17:03:29;;;;;;;6.47;3.60;;;;;;;;;;5038925;28;20411;-71
2023/02/21 17:05:54;;;;;;;6.35;3.20;;;;;;;;;;5040672;28;20679;-71
2023/02/21 17:08:19;;;;;;;7.45;3.30;;;;;;;;;;5048682;28;20036;-69
2023/02/21 17:10:44;;;;;;;7.80;3.63;;;;;;;;;;5058408;28;20025;-70
2023/02/21 17:13:10;;;;;;;7.90;3.35;;;;;;;;;;5049422;28;20282;-71